sensor_id;sensor_type;location;lat;lon;timestamp;pressure;altitude;pressure_sealevel;temperature;humidity
40730;BME280;26418;50.070;8.436;2023-04-05T00:01:30;100762.00;;;3.23;57.37
40730;BME280;26418;50.070;8.436;2023-04-05T00:03:57;100758.59;;;3.27;57.02
40730;BME280;26418;50.070;8.436;2023-04-05T00:06:28;100762.34;;;3.26;57.07
40730;BME280;26418;50.070;8.436;2023-04-05T00:08:55;100748.13;;;3.14;57.51
40730;BME280;26418;50.070;8.436;2023-04-05T00:11:21;100760.94;;;3.24;57.45
40730;BME280;26418;50.070;8.436;2023-04-05T00:13:47;100764.66;;;3.23;57.24
40730;BME280;26418;50.070;8.436;2023-04-05T00:16:17;100760.00;;;3.18;57.50
40730;BME280;26418;50.070;8.436;2023-04-05T00:18:46;100760.81;;;3.19;57.54
40730;BME280;26418;50.070;8.436;2023-04-05T00:21:18;100750.00;;;3.13;58.11
40730;BME280;26418;50.070;8.436;2023-04-05T00:23:55;100758.81;;;3.14;57.45
40730;BME280;26418;50.070;8.436;2023-04-05T00:26:24;100751.50;;;3.09;57.89
40730;BME280;26418;50.070;8.436;2023-04-05T00:28:51;100753.22;;;3.04;57.90
40730;BME280;26418;50.070;8.436;2023-04-05T00:31:17;100755.91;;;3.04;58.11
40730;BME280;26418;50.070;8.436;2023-04-05T00:33:43;100755.41;;;2.95;58.59
40730;BME280;26418;50.070;8.436;2023-04-05T00:36:18;100756.81;;;2.97;58.57
40730;BME280;26418;50.070;8.436;2023-04-05T00:38:45;100753.22;;;3.04;58.11
40730;BME280;26418;50.070;8.436;2023-04-05T00:41:13;100755.69;;;3.05;58.11
40730;BME280;26418;50.070;8.436;2023-04-05T00:43:40;100747.66;;;3.05;58.06
40730;BME280;26418;50.070;8.436;2023-04-05T00:46:06;100753.47;;;3.02;58.22
40730;BME280;26418;50.070;8.436;2023-04-05T00:48:33;100752.31;;;2.98;58.37
40730;BME280;26418;50.070;8.436;2023-04-05T00:51:00;100745.53;;;2.95;58.59
40730;BME280;26418;50.070;8.436;2023-04-05T00:53:26;100749.25;;;2.94;58.55
40730;BME280;26418;50.070;8.436;2023-04-05T00:55:51;100739.72;;;2.87;58.58
40730;BME280;26418;50.070;8.436;2023-04-05T00:58:18;100742.72;;;2.78;58.78
40730;BME280;26418;50.070;8.436;2023-04-05T01:03:17;100735.03;;;2.70;59.66
40730;BME280;26418;50.070;8.436;2023-04-05T01:05:51;100719.31;;;2.62;59.28
40730;BME280;26418;50.070;8.436;2023-04-05T01:08:33;100743.97;;;2.64;59.98
40730;BME280;26418;50.070;8.436;2023-04-05T01:11:03;100733.34;;;2.57;60.18
40730;BME280;26418;50.070;8.436;2023-04-05T01:13:31;100731.00;;;2.49;60.50
40730;BME280;26418;50.070;8.436;2023-04-05T01:15:57;100733.06;;;2.47;60.72
40730;BME280;26418;50.070;8.436;2023-04-05T01:18:24;100729.59;;;2.46;60.74
40730;BME280;26418;50.070;8.436;2023-04-05T01:20:58;100728.66;;;2.41;60.76
40730;BME280;26418;50.070;8.436;2023-04-05T01:26:35;100722.03;;;2.43;60.32
40730;BME280;26418;50.070;8.436;2023-04-05T01:32:20;100715.53;;;2.39;60.43
40730;BME280;26418;50.070;8.436;2023-04-05T01:37:44;100698.28;;;2.23;60.52
40730;BME280;26418;50.070;8.436;2023-04-05T01:40:13;100709.09;;;2.28;60.45
40730;BME280;26418;50.070;8.436;2023-04-05T01:42:39;100688.03;;;2.20;60.50
40730;BME280;26418;50.070;8.436;2023-04-05T01:45:05;100708.03;;;2.29;60.74
40730;BME280;26418;50.070;8.436;2023-04-05T01:47:31;100697.69;;;2.21;60.36
40730;BME280;26418;50.070;8.436;2023-04-05T01:49:56;100701.25;;;2.15;60.73
40730;BME280;26418;50.070;8.436;2023-04-05T01:52:22;100701.50;;;2.13;61.20
40730;BME280;26418;50.070;8.436;2023-04-05T01:54:48;100697.25;;;2.06;61.38
40730;BME280;26418;50.070;8.436;2023-04-05T01:57:13;100695.63;;;2.04;60.99
40730;BME280;26418;50.070;8.436;2023-04-05T01:59:39;100693.78;;;2.05;61.13
40730;BME280;26418;50.070;8.436;2023-04-05T02:02:04;100692.97;;;2.04;60.72
40730;BME280;26418;50.070;8.436;2023-04-05T02:04:30;100683.63;;;1.95;61.20
40730;BME280;26418;50.070;8.436;2023-04-05T02:06:55;100695.94;;;1.96;61.04
40730;BME280;26418;50.070;8.436;2023-04-05T02:09:21;100692.53;;;1.89;61.29
40730;BME280;26418;50.070;8.436;2023-04-05T02:11:46;100695.06;;;1.84;61.36
40730;BME280;26418;50.070;8.436;2023-04-05T02:14:12;100690.03;;;1.76;61.60
40730;BME280;26418;50.070;8.436;2023-04-05T02:16:38;100697.25;;;1.68;62.05
40730;BME280;26418;50.070;8.436;2023-04-05T02:19:04;100692.16;;;1.67;62.13
40730;BME280;26418;50.070;8.436;2023-04-05T02:21:30;100700.53;;;1.70;62.21
40730;BME280;26418;50.070;8.436;2023-04-05T02:23:56;100678.91;;;1.60;62.12
40730;BME280;26418;50.070;8.436;2023-04-05T02:26:22;100696.47;;;1.68;62.21
40730;BME280;26418;50.070;8.436;2023-04-05T02:28:48;100698.69;;;1.71;61.83
40730;BME280;26418;50.070;8.436;2023-04-05T02:31:13;100689.94;;;1.64;61.41
40730;BME280;26418;50.070;8.436;2023-04-05T02:33:39;100702.84;;;1.67;61.71
40730;BME280;26418;50.070;8.436;2023-04-05T02:36:07;100681.47;;;1.48;62.19
40730;BME280;26418;50.070;8.436;2023-04-05T02:38:36;100697.56;;;1.60;62.31
40730;BME280;26418;50.070;8.436;2023-04-05T02:41:02;100694.69;;;1.62;61.62
40730;BME280;26418;50.070;8.436;2023-04-05T02:43:28;100688.53;;;1.61;61.97
40730;BME280;26418;50.070;8.436;2023-04-05T02:45:54;100691.78;;;1.63;61.37
40730;BME280;26418;50.070;8.436;2023-04-05T02:48:19;100692.03;;;1.62;61.33
40730;BME280;26418;50.070;8.436;2023-04-05T02:50:49;100694.31;;;1.58;61.92
40730;BME280;26418;50.070;8.436;2023-04-05T02:53:16;100685.72;;;1.56;61.85
40730;BME280;26418;50.070;8.436;2023-04-05T02:55:55;100681.56;;;1.60;61.71
40730;BME280;26418;50.070;8.436;2023-04-05T02:58:21;100683.78;;;1.63;61.30
40730;BME280;26418;50.070;8.436;2023-04-05T03:00:48;100683.00;;;1.63;61.46
40730;BME280;26418;50.070;8.436;2023-04-05T03:03:18;100684.47;;;1.59;61.45
40730;BME280;26418;50.070;8.436;2023-04-05T03:05:45;100674.69;;;1.52;61.88
40730;BME280;26418;50.070;8.436;2023-04-05T03:08:13;100662.69;;;1.43;61.80
40730;BME280;26418;50.070;8.436;2023-04-05T03:10:46;100661.28;;;1.40;62.07
40730;BME280;26418;50.070;8.436;2023-04-05T03:13:13;100671.06;;;1.47;62.24
40730;BME280;26418;50.070;8.436;2023-04-05T03:15:39;100681.09;;;1.45;62.23
40730;BME280;26418;50.070;8.436;2023-04-05T03:18:05;100677.69;;;1.37;62.55
40730;BME280;26418;50.070;8.436;2023-04-05T03:20:33;100675.91;;;1.31;62.88
40730;BME280;26418;50.070;8.436;2023-04-05T03:22:59;100676.56;;;1.27;63.14
40730;BME280;26418;50.070;8.436;2023-04-05T03:25:26;100677.59;;;1.25;63.24
40730;BME280;26418;50.070;8.436;2023-04-05T03:27:52;100682.34;;;1.23;63.18
40730;BME280;26418;50.070;8.436;2023-04-05T03:30:17;100656.44;;;1.12;62.82
40730;BME280;26418;50.070;8.436;2023-04-05T03:32:43;100675.81;;;1.19;63.07
40730;BME280;26418;50.070;8.436;2023-04-05T03:35:08;100670.28;;;1.21;62.91
40730;BME280;26418;50.070;8.436;2023-04-05T03:37:34;100683.53;;;1.28;62.49
40730;BME280;26418;50.070;8.436;2023-04-05T03:40:00;100673.31;;;1.24;62.45
40730;BME280;26418;50.070;8.436;2023-04-05T03:42:25;100662.94;;;1.16;62.45
40730;BME280;26418;50.070;8.436;2023-04-05T03:44:51;100656.63;;;1.10;62.54
40730;BME280;26418;50.070;8.436;2023-04-05T03:47:20;100646.19;;;1.09;62.68
40730;BME280;26418;50.070;8.436;2023-04-05T03:49:49;100664.34;;;1.19;62.28
40730;BME280;26418;50.070;8.436;2023-04-05T03:52:15;100663.09;;;1.21;62.28
40730;BME280;26418;50.070;8.436;2023-04-05T03:54:41;100657.78;;;1.21;62.46
40730;BME280;26418;50.070;8.436;2023-04-05T03:57:06;100655.69;;;1.23;61.93
40730;BME280;26418;50.070;8.436;2023-04-05T03:59:32;100657.78;;;1.21;62.08
40730;BME280;26418;50.070;8.436;2023-04-05T04:01:58;100661.09;;;1.17;62.28
40730;BME280;26418;50.070;8.436;2023-04-05T04:04:23;100659.91;;;1.13;62.18
40730;BME280;26418;50.070;8.436;2023-04-05T04:06:49;100652.19;;;1.04;62.30
40730;BME280;26418;50.070;8.436;2023-04-05T04:09:15;100641.94;;;1.01;62.98
40730;BME280;26418;50.070;8.436;2023-04-05T04:11:40;100657.47;;;1.11;62.92
40730;BME280;26418;50.070;8.436;2023-04-05T04:14:07;100656.72;;;1.04;63.01
40730;BME280;26418;50.070;8.436;2023-04-05T04:16:32;100665.72;;;1.03;62.97
40730;BME280;26418;50.070;8.436;2023-04-05T04:18:58;100650.81;;;0.95;63.03
40730;BME280;26418;50.070;8.436;2023-04-05T04:21:23;100644.09;;;0.92;62.77
40730;BME280;26418;50.070;8.436;2023-04-05T04:23:52;100651.44;;;0.97;62.70
40730;BME280;26418;50.070;8.436;2023-04-05T04:26:20;100659.94;;;1.06;63.01
40730;BME280;26418;50.070;8.436;2023-04-05T04:28:54;100664.47;;;1.05;62.68
40730;BME280;26418;50.070;8.436;2023-04-05T04:31:19;100667.56;;;1.02;62.88
40730;BME280;26418;50.070;8.436;2023-04-05T04:33:50;100657.94;;;1.01;62.93
40730;BME280;26418;50.070;8.436;2023-04-05T04:36:17;100658.34;;;1.05;62.41
40730;BME280;26418;50.070;8.436;2023-04-05T04:38:59;100662.19;;;1.09;62.15
40730;BME280;26418;50.070;8.436;2023-04-05T04:41:26;100656.09;;;1.02;62.53
40730;BME280;26418;50.070;8.436;2023-04-05T04:43:52;100642.19;;;1.00;62.66
40730;BME280;26418;50.070;8.436;2023-04-05T04:46:19;100644.25;;;0.98;62.07
40730;BME280;26418;50.070;8.436;2023-04-05T04:48:45;100655.50;;;1.00;62.06
40730;BME280;26418;50.070;8.436;2023-04-05T04:51:11;100635.94;;;0.87;62.13
40730;BME280;26418;50.070;8.436;2023-04-05T04:53:37;100658.16;;;1.00;62.57
40730;BME280;26418;50.070;8.436;2023-04-05T04:56:08;100651.19;;;0.99;62.41
40730;BME280;26418;50.070;8.436;2023-04-05T04:58:34;100649.00;;;0.96;62.48
40730;BME280;26418;50.070;8.436;2023-04-05T05:01:00;100648.63;;;0.92;62.31
40730;BME280;26418;50.070;8.436;2023-04-05T05:03:33;100649.84;;;0.89;62.28
40730;BME280;26418;50.070;8.436;2023-04-05T05:06:00;100656.81;;;0.90;62.55
40730;BME280;26418;50.070;8.436;2023-04-05T05:08:26;100657.41;;;0.92;62.55
40730;BME280;26418;50.070;8.436;2023-04-05T05:10:52;100662.50;;;0.94;62.47
40730;BME280;26418;50.070;8.436;2023-04-05T05:13:18;100667.44;;;0.90;62.70
40730;BME280;26418;50.070;8.436;2023-04-05T05:15:43;100662.97;;;0.91;62.99
40730;BME280;26418;50.070;8.436;2023-04-05T05:18:09;100657.41;;;0.92;62.96
40730;BME280;26418;50.070;8.436;2023-04-05T05:20:36;100659.00;;;1.00;62.45
40730;BME280;26418;50.070;8.436;2023-04-05T05:23:02;100665.34;;;0.99;62.64
40730;BME280;26418;50.070;8.436;2023-04-05T05:25:29;100666.16;;;1.00;62.67
40730;BME280;26418;50.070;8.436;2023-04-05T05:27:55;100662.88;;;0.98;62.49
40730;BME280;26418;50.070;8.436;2023-04-05T05:30:21;100653.50;;;0.95;62.99
40730;BME280;26418;50.070;8.436;2023-04-05T05:32:47;100642.03;;;0.94;62.32
40730;BME280;26418;50.070;8.436;2023-04-05T05:35:13;100661.53;;;1.14;61.97
40730;BME280;26418;50.070;8.436;2023-04-05T05:37:39;100671.31;;;1.20;61.54
40730;BME280;26418;50.070;8.436;2023-04-05T05:40:06;100666.34;;;1.23;61.48
40730;BME280;26418;50.070;8.436;2023-04-05T05:42:32;100671.69;;;1.23;61.88
40730;BME280;26418;50.070;8.436;2023-04-05T05:45:02;100664.44;;;1.31;61.10
40730;BME280;26418;50.070;8.436;2023-04-05T05:47:28;100667.69;;;1.33;61.23
40730;BME280;26418;50.070;8.436;2023-04-05T05:49:53;100665.63;;;1.35;61.21
40730;BME280;26418;50.070;8.436;2023-04-05T05:52:19;100666.00;;;1.38;61.10
40730;BME280;26418;50.070;8.436;2023-04-05T05:54:44;100658.38;;;1.42;61.23
40730;BME280;26418;50.070;8.436;2023-04-05T05:57:11;100664.31;;;1.44;61.42
40730;BME280;26418;50.070;8.436;2023-04-05T05:59:37;100659.41;;;1.41;61.14
40730;BME280;26418;50.070;8.436;2023-04-05T06:02:03;100667.59;;;1.46;61.43
40730;BME280;26418;50.070;8.436;2023-04-05T06:04:29;100668.91;;;1.55;61.45
40730;BME280;26418;50.070;8.436;2023-04-05T06:06:56;100659.38;;;1.66;60.85
40730;BME280;26418;50.070;8.436;2023-04-05T06:09:21;100678.91;;;1.79;60.33
40730;BME280;26418;50.070;8.436;2023-04-05T06:11:50;100661.94;;;1.73;60.18
40730;BME280;26418;50.070;8.436;2023-04-05T06:14:16;100672.47;;;1.86;59.80
40730;BME280;26418;50.070;8.436;2023-04-05T06:16:42;100682.31;;;1.86;59.98
40730;BME280;26418;50.070;8.436;2023-04-05T06:19:07;100677.34;;;1.89;59.83
40730;BME280;26418;50.070;8.436;2023-04-05T06:21:33;100675.88;;;1.94;59.48
40730;BME280;26418;50.070;8.436;2023-04-05T06:23:58;100681.94;;;2.01;58.95
40730;BME280;26418;50.070;8.436;2023-04-05T06:26:24;100674.53;;;2.03;58.91
40730;BME280;26418;50.070;8.436;2023-04-05T06:28:53;100675.91;;;2.06;59.34
40730;BME280;26418;50.070;8.436;2023-04-05T06:31:24;100678.50;;;2.12;59.47
40730;BME280;26418;50.070;8.436;2023-04-05T06:33:50;100667.47;;;2.09;59.08
40730;BME280;26418;50.070;8.436;2023-04-05T06:36:16;100657.59;;;2.09;59.40
40730;BME280;26418;50.070;8.436;2023-04-05T06:38:41;100668.91;;;2.23;59.30
40730;BME280;26418;50.070;8.436;2023-04-05T06:41:07;100663.72;;;2.28;63.48
40730;BME280;26418;50.070;8.436;2023-04-05T06:43:33;100668.19;;;2.46;62.15
40730;BME280;26418;50.070;8.436;2023-04-05T06:46:02;100666.28;;;2.65;59.96
40730;BME280;26418;50.070;8.436;2023-04-05T06:48:32;100673.72;;;2.75;57.99
40730;BME280;26418;50.070;8.436;2023-04-05T06:50:59;100665.84;;;2.80;58.02
40730;BME280;26418;50.070;8.436;2023-04-05T06:53:25;100667.22;;;2.83;57.13
40730;BME280;26418;50.070;8.436;2023-04-05T06:55:56;100672.44;;;2.90;56.81
40730;BME280;26418;50.070;8.436;2023-04-05T06:58:22;100679.22;;;2.92;57.26
40730;BME280;26418;50.070;8.436;2023-04-05T07:00:49;100675.84;;;2.97;56.95
40730;BME280;26418;50.070;8.436;2023-04-05T07:03:14;100678.88;;;3.01;56.98
40730;BME280;26418;50.070;8.436;2023-04-05T07:05:41;100676.41;;;3.11;56.49
40730;BME280;26418;50.070;8.436;2023-04-05T07:08:13;100672.50;;;3.13;56.13
40730;BME280;26418;50.070;8.436;2023-04-05T07:10:39;100679.00;;;3.18;56.47
40730;BME280;26418;50.070;8.436;2023-04-05T07:13:05;100668.19;;;3.12;56.50
40730;BME280;26418;50.070;8.436;2023-04-05T07:15:31;100667.72;;;3.15;56.84
40730;BME280;26418;50.070;8.436;2023-04-05T07:17:57;100673.41;;;3.19;56.53
40730;BME280;26418;50.070;8.436;2023-04-05T07:20:22;100662.25;;;3.22;56.48
40730;BME280;26418;50.070;8.436;2023-04-05T07:22:48;100662.25;;;3.34;55.56
40730;BME280;26418;50.070;8.436;2023-04-05T07:25:14;100646.09;;;3.29;55.16
40730;BME280;26418;50.070;8.436;2023-04-05T07:27:39;100667.13;;;3.49;54.76
40730;BME280;26418;50.070;8.436;2023-04-05T07:30:08;100649.22;;;3.50;53.57
40730;BME280;26418;50.070;8.436;2023-04-05T07:32:33;100662.81;;;3.60;53.61
40730;BME280;26418;50.070;8.436;2023-04-05T07:34:59;100662.09;;;3.65;54.18
40730;BME280;26418;50.070;8.436;2023-04-05T07:37:24;100657.78;;;3.75;53.65
40730;BME280;26418;50.070;8.436;2023-04-05T07:39:51;100665.44;;;3.84;53.15
40730;BME280;26418;50.070;8.436;2023-04-05T07:42:17;100663.75;;;3.94;53.56
40730;BME280;26418;50.070;8.436;2023-04-05T07:44:45;100663.50;;;4.08;52.95
40730;BME280;26418;50.070;8.436;2023-04-05T07:47:10;100656.22;;;4.20;53.33
40730;BME280;26418;50.070;8.436;2023-04-05T07:49:36;100643.09;;;4.19;53.12
40730;BME280;26418;50.070;8.436;2023-04-05T07:52:02;100655.56;;;4.42;53.31
40730;BME280;26418;50.070;8.436;2023-04-05T07:54:30;100656.06;;;4.56;53.43
40730;BME280;26418;50.070;8.436;2023-04-05T07:56:55;100651.75;;;4.72;53.49
40730;BME280;26418;50.070;8.436;2023-04-05T07:59:22;100659.50;;;4.85;53.01
40730;BME280;26418;50.070;8.436;2023-04-05T08:01:47;100649.81;;;5.01;53.15
40730;BME280;26418;50.070;8.436;2023-04-05T08:04:13;100651.19;;;5.21;51.74
40730;BME280;26418;50.070;8.436;2023-04-05T08:06:38;100646.44;;;5.28;50.82
40730;BME280;26418;50.070;8.436;2023-04-05T08:09:03;100659.91;;;5.33;50.78
40730;BME280;26418;50.070;8.436;2023-04-05T08:11:30;100646.94;;;5.25;50.10
40730;BME280;26418;50.070;8.436;2023-04-05T08:13:56;100640.47;;;5.21;49.83
40730;BME280;26418;50.070;8.436;2023-04-05T08:16:21;100650.75;;;5.29;49.72
40730;BME280;26418;50.070;8.436;2023-04-05T08:18:47;100653.38;;;5.24;49.95
40730;BME280;26418;50.070;8.436;2023-04-05T08:21:12;100645.09;;;5.26;50.14
40730;BME280;26418;50.070;8.436;2023-04-05T08:23:37;100645.47;;;5.34;50.77
40730;BME280;26418;50.070;8.436;2023-04-05T08:26:03;100650.16;;;5.44;50.08
40730;BME280;26418;50.070;8.436;2023-04-05T08:28:28;100635.00;;;5.55;50.37
40730;BME280;26418;50.070;8.436;2023-04-05T08:30:54;100640.75;;;5.64;48.81
40730;BME280;26418;50.070;8.436;2023-04-05T08:33:22;100637.13;;;5.75;48.92
40730;BME280;26418;50.070;8.436;2023-04-05T08:35:47;100639.56;;;5.77;47.59
40730;BME280;26418;50.070;8.436;2023-04-05T08:38:12;100639.63;;;5.82;47.69
40730;BME280;26418;50.070;8.436;2023-04-05T08:40:45;100626.44;;;5.80;48.22
40730;BME280;26418;50.070;8.436;2023-04-05T08:45:48;100627.72;;;5.95;48.58
40730;BME280;26418;50.070;8.436;2023-04-05T08:48:15;100644.25;;;6.09;48.50
40730;BME280;26418;50.070;8.436;2023-04-05T08:50:40;100637.44;;;6.23;48.67
40730;BME280;26418;50.070;8.436;2023-04-05T08:53:06;100633.75;;;6.35;46.80
40730;BME280;26418;50.070;8.436;2023-04-05T08:55:36;100638.66;;;6.43;45.49
40730;BME280;26418;50.070;8.436;2023-04-05T08:58:07;100618.28;;;6.42;45.90
40730;BME280;26418;50.070;8.436;2023-04-05T09:00:35;100627.47;;;6.51;45.81
40730;BME280;26418;50.070;8.436;2023-04-05T09:03:01;100611.19;;;6.63;46.28
40730;BME280;26418;50.070;8.436;2023-04-05T09:05:27;100616.44;;;6.85;45.58
40730;BME280;26418;50.070;8.436;2023-04-05T09:07:56;100619.00;;;7.07;45.39
40730;BME280;26418;50.070;8.436;2023-04-05T09:10:22;100617.53;;;7.32;44.90
40730;BME280;26418;50.070;8.436;2023-04-05T09:12:49;100616.81;;;7.52;44.27
40730;BME280;26418;50.070;8.436;2023-04-05T09:15:15;100611.50;;;7.63;42.88
40730;BME280;26418;50.070;8.436;2023-04-05T09:17:42;100607.22;;;7.77;42.41
40730;BME280;26418;50.070;8.436;2023-04-05T09:20:07;100612.97;;;7.96;42.68
40730;BME280;26418;50.070;8.436;2023-04-05T09:22:43;100604.91;;;8.12;41.88
40730;BME280;26418;50.070;8.436;2023-04-05T09:25:12;100613.56;;;8.34;41.19
40730;BME280;26418;50.070;8.436;2023-04-05T09:27:55;100608.75;;;8.52;40.02
40730;BME280;26418;50.070;8.436;2023-04-05T09:30:21;100613.59;;;8.71;40.27
40730;BME280;26418;50.070;8.436;2023-04-05T09:32:49;100607.13;;;8.87;39.77
40730;BME280;26418;50.070;8.436;2023-04-05T09:35:18;100605.22;;;8.98;38.47
40730;BME280;26418;50.070;8.436;2023-04-05T09:37:54;100601.69;;;9.13;38.93
40730;BME280;26418;50.070;8.436;2023-04-05T09:40:21;100601.63;;;9.28;38.52
40730;BME280;26418;50.070;8.436;2023-04-05T09:42:47;100607.75;;;9.55;38.44
40730;BME280;26418;50.070;8.436;2023-04-05T09:45:14;100614.44;;;9.68;36.61
40730;BME280;26418;50.070;8.436;2023-04-05T09:47:40;100605.69;;;9.91;37.53
40730;BME280;26418;50.070;8.436;2023-04-05T09:52:41;100597.69;;;10.16;35.88
40730;BME280;26418;50.070;8.436;2023-04-05T09:55:08;100596.69;;;10.06;35.26
40730;BME280;26418;50.070;8.436;2023-04-05T09:57:36;100591.50;;;10.15;35.21
40730;BME280;26418;50.070;8.436;2023-04-05T10:00:03;100598.75;;;10.20;35.39
40730;BME280;26418;50.070;8.436;2023-04-05T10:02:37;100596.31;;;10.23;36.25
40730;BME280;26418;50.070;8.436;2023-04-05T10:05:07;100591.22;;;10.17;36.17
40730;BME280;26418;50.070;8.436;2023-04-05T10:07:36;100598.50;;;10.56;36.22
40730;BME280;26418;50.070;8.436;2023-04-05T10:10:03;100588.91;;;10.74;34.56
40730;BME280;26418;50.070;8.436;2023-04-05T10:12:31;100589.31;;;10.87;34.63
40730;BME280;26418;50.070;8.436;2023-04-05T10:14:57;100586.47;;;11.26;34.85
40730;BME280;26418;50.070;8.436;2023-04-05T10:27:53;100578.50;;;11.35;33.20
40730;BME280;26418;50.070;8.436;2023-04-05T10:30:23;100580.75;;;11.52;32.42
40730;BME280;26418;50.070;8.436;2023-04-05T10:35:34;100571.94;;;12.23;32.82
40730;BME280;26418;50.070;8.436;2023-04-05T10:40:46;100557.19;;;12.62;31.77
40730;BME280;26418;50.070;8.436;2023-04-05T10:43:18;100561.56;;;12.91;31.67
40730;BME280;26418;50.070;8.436;2023-04-05T10:45:47;100570.19;;;12.79;29.94
40730;BME280;26418;50.070;8.436;2023-04-05T10:51:23;100560.25;;;13.02;30.00
40730;BME280;26418;50.070;8.436;2023-04-05T10:53:48;100555.72;;;13.12;29.73
40730;BME280;26418;50.070;8.436;2023-04-05T10:56:15;100561.47;;;13.24;30.24
40730;BME280;26418;50.070;8.436;2023-04-05T10:58:42;100554.22;;;13.47;30.13
40730;BME280;26418;50.070;8.436;2023-04-05T11:01:08;100551.44;;;13.75;29.30
40730;BME280;26418;50.070;8.436;2023-04-05T11:04:10;100559.09;;;13.73;28.54
40730;BME280;26418;50.070;8.436;2023-04-05T11:06:36;100545.25;;;13.61;28.51
40730;BME280;26418;50.070;8.436;2023-04-05T11:09:13;100544.97;;;13.20;29.33
40730;BME280;26418;50.070;8.436;2023-04-05T11:11:41;100550.75;;;13.70;29.90
40730;BME280;26418;50.070;8.436;2023-04-05T11:16:46;100544.69;;;14.32;29.08
40730;BME280;26418;50.070;8.436;2023-04-05T11:19:11;100534.25;;;14.80;29.18
40730;BME280;26418;50.070;8.436;2023-04-05T11:21:37;100531.19;;;15.13;27.88
40730;BME280;26418;50.070;8.436;2023-04-05T11:24:06;100537.91;;;14.52;26.92
40730;BME280;26418;50.070;8.436;2023-04-05T11:29:14;100524.06;;;14.31;27.59
40730;BME280;26418;50.070;8.436;2023-04-05T11:32:04;100524.94;;;14.72;28.40
40730;BME280;26418;50.070;8.436;2023-04-05T11:34:34;100519.97;;;15.14;28.28
40730;BME280;26418;50.070;8.436;2023-04-05T11:37:00;100519.88;;;15.54;27.52
40730;BME280;26418;50.070;8.436;2023-04-05T11:39:26;100516.34;;;15.63;26.76
40730;BME280;26418;50.070;8.436;2023-04-05T11:42:03;100517.59;;;15.39;25.91
40730;BME280;26418;50.070;8.436;2023-04-05T11:44:49;100507.69;;;15.43;25.27
40730;BME280;26418;50.070;8.436;2023-04-05T11:47:18;100496.25;;;15.15;25.41
40730;BME280;26418;50.070;8.436;2023-04-05T11:49:48;100507.00;;;15.20;26.19
40730;BME280;26418;50.070;8.436;2023-04-05T11:52:16;100505.41;;;15.45;26.50
40730;BME280;26418;50.070;8.436;2023-04-05T11:54:43;100501.94;;;15.80;26.96
40730;BME280;26418;50.070;8.436;2023-04-05T11:57:19;100500.94;;;15.58;25.40
40730;BME280;26418;50.070;8.436;2023-04-05T11:59:45;100505.78;;;15.52;25.60
40730;BME280;26418;50.070;8.436;2023-04-05T12:02:11;100495.47;;;15.40;25.92
40730;BME280;26418;50.070;8.436;2023-04-05T12:04:37;100499.50;;;15.43;25.14
40730;BME280;26418;50.070;8.436;2023-04-05T12:07:18;100492.59;;;15.28;25.72
40730;BME280;26418;50.070;8.436;2023-04-05T12:10:08;100488.31;;;14.87;25.80
40730;BME280;26418;50.070;8.436;2023-04-05T12:12:43;100487.09;;;15.02;27.21
40730;BME280;26418;50.070;8.436;2023-04-05T12:15:10;100480.03;;;15.09;27.31
40730;BME280;26418;50.070;8.436;2023-04-05T12:17:46;100480.69;;;15.24;27.85
40730;BME280;26418;50.070;8.436;2023-04-05T12:20:21;100478.03;;;14.84;27.24
40730;BME280;26418;50.070;8.436;2023-04-05T12:22:48;100476.56;;;14.14;27.34
40730;BME280;26418;50.070;8.436;2023-04-05T12:25:17;100469.97;;;13.84;28.06
40730;BME280;26418;50.070;8.436;2023-04-05T12:27:43;100483.25;;;13.86;29.48
40730;BME280;26418;50.070;8.436;2023-04-05T12:30:16;100474.66;;;13.70;28.01
40730;BME280;26418;50.070;8.436;2023-04-05T12:32:49;100456.06;;;13.63;28.51
40730;BME280;26418;50.070;8.436;2023-04-05T12:37:42;100464.13;;;13.77;28.75
40730;BME280;26418;50.070;8.436;2023-04-05T12:40:08;100463.09;;;13.64;28.88
40730;BME280;26418;50.070;8.436;2023-04-05T12:42:35;100454.81;;;13.46;28.76
40730;BME280;26418;50.070;8.436;2023-04-05T12:45:05;100457.03;;;13.30;28.11
40730;BME280;26418;50.070;8.436;2023-04-05T12:47:32;100456.31;;;13.25;28.94
40730;BME280;26418;50.070;8.436;2023-04-05T12:50:09;100448.91;;;13.02;28.98
40730;BME280;26418;50.070;8.436;2023-04-05T12:52:35;100453.47;;;12.79;28.87
40730;BME280;26418;50.070;8.436;2023-04-05T12:55:00;100438.38;;;12.87;30.02
40730;BME280;26418;50.070;8.436;2023-04-05T12:57:30;100454.25;;;13.08;29.43
40730;BME280;26418;50.070;8.436;2023-04-05T12:59:56;100438.78;;;12.80;28.57
40730;BME280;26418;50.070;8.436;2023-04-05T13:02:21;100437.47;;;12.78;28.28
40730;BME280;26418;50.070;8.436;2023-04-05T13:04:46;100431.25;;;12.77;28.53
40730;BME280;26418;50.070;8.436;2023-04-05T13:07:12;100429.56;;;12.67;28.75
40730;BME280;26418;50.070;8.436;2023-04-05T13:09:37;100425.44;;;12.56;29.52
40730;BME280;26418;50.070;8.436;2023-04-05T13:12:03;100429.63;;;12.62;30.07
40730;BME280;26418;50.070;8.436;2023-04-05T13:14:28;100424.31;;;12.57;29.55
40730;BME280;26418;50.070;8.436;2023-04-05T13:16:53;100426.03;;;12.67;30.18
40730;BME280;26418;50.070;8.436;2023-04-05T13:19:19;100426.63;;;12.64;29.24
40730;BME280;26418;50.070;8.436;2023-04-05T13:21:44;100421.69;;;12.52;29.77
40730;BME280;26418;50.070;8.436;2023-04-05T13:24:10;100422.31;;;12.49;29.75
40730;BME280;26418;50.070;8.436;2023-04-05T13:26:35;100426.00;;;12.53;30.20
40730;BME280;26418;50.070;8.436;2023-04-05T13:29:01;100420.41;;;12.63;30.06
40730;BME280;26418;50.070;8.436;2023-04-05T13:31:27;100409.75;;;12.67;29.30
40730;BME280;26418;50.070;8.436;2023-04-05T13:33:53;100406.94;;;12.58;29.47
40730;BME280;26418;50.070;8.436;2023-04-05T13:36:18;100408.44;;;12.50;29.52
40730;BME280;26418;50.070;8.436;2023-04-05T13:38:44;100399.50;;;12.50;29.96
40730;BME280;26418;50.070;8.436;2023-04-05T13:41:10;100399.69;;;12.53;29.92
40730;BME280;26418;50.070;8.436;2023-04-05T13:43:35;100399.09;;;12.56;30.13